Allen Jay, North Carolina
Current Conditions -  °F | °C
As of 2:54 AM on Wednesday 22 Oct 2014 (Local Time) from KGSO Reporting Station
Clear Clear  
Wind Chill:   Ceiling: Unl
Heat Index:   Visibility: 10mi
Dew Point:   Wind: 6mph
Humidity: 79%   Direction: 310°NW
Pressure: 29.96"   Gusts: NA
Location:  35.9136°N, 79.9465°W
Report Text: KGSO 220654Z 31005KT 10SM CLR 07/03 A2996 RMK AO2 SLP142 T00670033
Loading
Personal Weather Stations






























Interactive Weather Map New forecast layout! Learn more

10-Day Weather Forecast

Advertisements
Track Severe Weather on mobile